INDIA METEOROLOGICAL DEPARTMENT, R.M.C. NEW DELHI
Dated:21-10-2019
METARS


Ahmedabad  
VAAH 201830Z 17005KT 4000 HZ NSC 27/21 Q1013 NOSIG=
Allahabad  
VEAB 201800Z VRB01KT 5000 BR SCT020 BKN090 24/23 Q1014 NOSIG=
Aurangabad 
VAAU 201800Z 09003KT 3000 DZ/HZ FEW012 SCT020 BKN080 21/19 Q1016 NOSIG=
Bangalore  
VOBL 201900Z VRB02KT 6000 SCT012 SCT080 21/21 Q1016 NOSIG=
Bhopal     
VABP 201800Z 09004KT 2500 HZ SCT020 BKN100 22/20 Q1016 NOSIG=
Bhubaneswar
VEBS 201900Z 00000KT 4000 HZ FEW020 SCT100 25/24 Q1012 NOSIG=
Chennai    
COR VOMM 201900Z 00000KT 4000 BR SCT018 FEW025CB BKN080 27/26 Q1010 TEMPO 3000 TSRA=
Coimbatore 
VOCB 201900Z 00000KT 4000 BR SCT012 BKN080 23/22 Q1013 NOSIG=
Colombo    
VCBI 201840Z 17006KT 8000 -SHRA SCT016 25/23 Q1010 NOSIG=
Delhi      
VIDP 201900Z 00000KT 3000 HZ FEW100 24/14 Q1014 NOSIG=
Gauhati    
VEGT 201900Z 00000KT 3000 BR SCT018 BKN100 26/25 Q1011 NOSIG=
Gaya       
VEGY 201900Z NIL=
Goa        
VOGO 201730Z 05010KT 5000 TS FEW010 FEW025CB BKN100 25/25 Q1012 TEMPO 4000 -TSRA/RA=
Hyderabad  
VOHS 201900Z 11004KT 4000 BR SCT015 BKN100 22/19 Q1015 TEMPO 3000 -RA=
Indore     
VAID 201800Z 09003KT 3000 HZ BKN100 22/19 Q1017 NOSIG=
Jaipur     
VIJP 201900Z 00000KT 3000 HZ NSC 24/10 Q1015 NOSIG=
Kochi      
VOCI 201900Z 00000KT 3000 RA SCT012 OVC080 25/25 Q1010 NOSIG=
Kolkata    
VECC 201900Z 34004KT 2400 HZ NSC 27/25 Q1011 NOSIG=
Kozhikode  
VOCL 201900Z 04003KT 3000 BR FEW004 SCT012 FEW025CB BKN080 26/24 Q1010 BECMG 4000 BR=
Lucknow    
VILK 201830Z 00000KT 2000 BR SCT020 BKN100 24/23 Q1013 NOSIG=
Madurai    
VOMD 201900Z 36004KT 3500 BR FEW015 BKN090 25/24 Q1011 NOSIG=
Mumbai     
VABB 201900Z 13005KT 3000 HZ SCT018 FEW025TCU BKN090 25/23 Q1012 NOSIG=
Nagpur     
VANP 201830Z 05002KT 3000 HZ SCT020 BKN090 23/21 Q1014 NOSIG=
Patna      
VEPT 201900Z NIL=
Raipur     
VERP 201900Z 01004KT 3000 -RA FEW012 SCT020 BKN080 22/22 Q1014 =
Surat     
VASU 201900Z 08003KT 5000 HZ FEW090 26/21 Q1012 NOSIG=
Ranchi     
VERC 201800Z 18002KT 2000 HZ SCT018 FEW030CB BKN100 20/19 Q1017 NOSIG=
Trichy     
VOTR 201900Z 02003KT 5000 BR SCT015 BKN100 26/25 Q1010 NOSIG=
Trivandrum 
VOTV 201900Z 00000KT 3000 BR SCT015 FEW025CB BKN080 25/24 Q1009 NOSIG=
Varanasi   
VEBN 201830Z 23003KT 1500 BR SCT025 BKN100 24/23 Q1013 NOSIG=
Vizag      
VOVZ 201900Z VRB02KT 5000 BR FEW018 BKN090 27/25 Q1011 NOSIG =
Male       
VRMM 201800Z VRB02KT 9999 -RA SCT017TCU BKN110 28/23 Q1011 TEMPO 5000 -SHRA=
Kathmandu  
VNKT 201900Z NIL=
Dhaka      
VGHS 201900Z 31003KT 3500 HZ SCT100 28/23 Q1011 NOSIG=
Colombo    
VCBI 201840Z 17006KT 8000 -SHRA SCT016 25/23 Q1010 NOSIG=
Karachi    
OPKC 201855Z 04003KT 5000 HZ NSC 25/11 Q1013 NOSIG=
Lahore     
OPLA 201855Z 00000KT 4000 FU NSC 22/15 Q1016 NOSIG RMK QFE990 RMK A29.98=
Gorakhpur  
VEGK 201800Z 25003KT 3000 BR SCT030 BKN090 25/25 Q1013 NOSIG=
Agra       
VIAG 201800Z VRB01KT 5000 BR FEW030 SCT100 19/19 Q1014 NOSIG=
Bagdogra   
VEBD 201800Z VRB01KT 2500 BR FEW025 BKN100 23/22 Q1012 NOSIG=
Gwalior    
VIGR 201800Z VRB02KT 3500 BR BKN100 22/21 Q1015 NOSIG=
Pune       
VAPO 201800Z 05003KT 4000 -RA SCT010 SCT015 OVC080 22/21 Q1017 TEMPO 3000 RA=
Jamnagar   
VAJM 201800Z 11003KT 6000 SKC 26/22 Q1012 NOSIG=